Aviation Digital Data Service (ADDS)

Output produced by METARs form (0449 UTC 23 February 2017)
found at http://aviationweather.gov/adds/metars/
 
KPBG 222339Z 2300/2324 36005KT P6SM FEW150 SCT200 
     FM230300 VRB03KT P6SM OVC035 
     FM231300 17009KT P6SM OVC035 
     FM232000 19009KT P6SM VCSH OVC035